sensor_id;sensor_type;location;lat;lon;timestamp;P1;durP1;ratioP1;P2;durP2;ratioP2
73951;SDS011;62304;47.662;18.324;2024-03-08T00:00:24;8.50;;;3.78;;
73951;SDS011;62304;47.662;18.324;2024-03-08T00:03:27;8.90;;;3.83;;
73951;SDS011;62304;47.662;18.324;2024-03-08T00:06:31;6.83;;;3.47;;
73951;SDS011;62304;47.662;18.324;2024-03-08T00:09:35;6.55;;;3.62;;
73951;SDS011;62304;47.662;18.324;2024-03-08T00:12:38;6.70;;;3.67;;
73951;SDS011;62304;47.662;18.324;2024-03-08T00:15:44;7.72;;;3.60;;
73951;SDS011;62304;47.662;18.324;2024-03-08T00:18:47;7.75;;;3.58;;
73951;SDS011;62304;47.662;18.324;2024-03-08T00:21:52;8.00;;;3.50;;
73951;SDS011;62304;47.662;18.324;2024-03-08T00:24:55;7.50;;;3.45;;
73951;SDS011;62304;47.662;18.324;2024-03-08T00:27:59;8.50;;;4.05;;
73951;SDS011;62304;47.662;18.324;2024-03-08T00:31:02;8.13;;;3.90;;
73951;SDS011;62304;47.662;18.324;2024-03-08T00:34:06;9.57;;;5.03;;
73951;SDS011;62304;47.662;18.324;2024-03-08T00:37:09;9.77;;;4.13;;
73951;SDS011;62304;47.662;18.324;2024-03-08T00:40:13;8.57;;;4.22;;
73951;SDS011;62304;47.662;18.324;2024-03-08T00:43:16;9.48;;;4.85;;
73951;SDS011;62304;47.662;18.324;2024-03-08T00:46:20;9.30;;;4.72;;
73951;SDS011;62304;47.662;18.324;2024-03-08T00:49:23;8.80;;;4.37;;
73951;SDS011;62304;47.662;18.324;2024-03-08T00:52:26;9.97;;;4.80;;
73951;SDS011;62304;47.662;18.324;2024-03-08T00:55:29;9.85;;;4.82;;
73951;SDS011;62304;47.662;18.324;2024-03-08T00:58:32;10.57;;;4.68;;
73951;SDS011;62304;47.662;18.324;2024-03-08T01:01:36;9.23;;;4.50;;
73951;SDS011;62304;47.662;18.324;2024-03-08T01:04:39;9.95;;;4.93;;
73951;SDS011;62304;47.662;18.324;2024-03-08T01:07:42;12.10;;;5.10;;
73951;SDS011;62304;47.662;18.324;2024-03-08T01:10:46;11.27;;;4.97;;
73951;SDS011;62304;47.662;18.324;2024-03-08T01:13:49;10.48;;;5.57;;
73951;SDS011;62304;47.662;18.324;2024-03-08T01:16:53;10.15;;;5.00;;
73951;SDS011;62304;47.662;18.324;2024-03-08T01:19:57;12.75;;;5.53;;
73951;SDS011;62304;47.662;18.324;2024-03-08T01:23:02;11.13;;;5.57;;
73951;SDS011;62304;47.662;18.324;2024-03-08T01:26:06;11.45;;;5.72;;
73951;SDS011;62304;47.662;18.324;2024-03-08T01:29:09;10.30;;;5.00;;
73951;SDS011;62304;47.662;18.324;2024-03-08T01:32:12;9.23;;;4.87;;
73951;SDS011;62304;47.662;18.324;2024-03-08T01:35:18;9.73;;;4.85;;
73951;SDS011;62304;47.662;18.324;2024-03-08T01:38:24;9.53;;;4.40;;
73951;SDS011;62304;47.662;18.324;2024-03-08T01:41:28;10.90;;;4.90;;
73951;SDS011;62304;47.662;18.324;2024-03-08T01:44:32;9.43;;;4.25;;
73951;SDS011;62304;47.662;18.324;2024-03-08T01:47:35;9.13;;;4.25;;
73951;SDS011;62304;47.662;18.324;2024-03-08T01:50:39;9.18;;;4.43;;
73951;SDS011;62304;47.662;18.324;2024-03-08T01:53:43;12.87;;;5.30;;
73951;SDS011;62304;47.662;18.324;2024-03-08T01:56:48;10.10;;;5.28;;
73951;SDS011;62304;47.662;18.324;2024-03-08T01:59:52;9.90;;;4.82;;
73951;SDS011;62304;47.662;18.324;2024-03-08T02:02:58;12.68;;;5.90;;
73951;SDS011;62304;47.662;18.324;2024-03-08T02:06:02;12.02;;;5.90;;
73951;SDS011;62304;47.662;18.324;2024-03-08T02:09:05;13.70;;;6.37;;
73951;SDS011;62304;47.662;18.324;2024-03-08T02:12:09;12.90;;;5.43;;
73951;SDS011;62304;47.662;18.324;2024-03-08T02:15:12;13.57;;;6.45;;
73951;SDS011;62304;47.662;18.324;2024-03-08T02:18:18;13.80;;;6.75;;
73951;SDS011;62304;47.662;18.324;2024-03-08T02:21:21;12.85;;;5.85;;
73951;SDS011;62304;47.662;18.324;2024-03-08T02:24:26;13.13;;;6.07;;
73951;SDS011;62304;47.662;18.324;2024-03-08T02:27:31;11.43;;;5.60;;
73951;SDS011;62304;47.662;18.324;2024-03-08T02:30:34;13.77;;;6.22;;
73951;SDS011;62304;47.662;18.324;2024-03-08T02:33:38;13.48;;;6.25;;
73951;SDS011;62304;47.662;18.324;2024-03-08T02:36:42;13.62;;;6.50;;
73951;SDS011;62304;47.662;18.324;2024-03-08T02:39:45;13.57;;;5.80;;
73951;SDS011;62304;47.662;18.324;2024-03-08T02:42:49;14.18;;;6.40;;
73951;SDS011;62304;47.662;18.324;2024-03-08T02:45:52;13.68;;;6.47;;
73951;SDS011;62304;47.662;18.324;2024-03-08T02:48:59;14.70;;;7.05;;
73951;SDS011;62304;47.662;18.324;2024-03-08T02:52:04;14.52;;;7.62;;
73951;SDS011;62304;47.662;18.324;2024-03-08T02:55:09;16.00;;;7.43;;
73951;SDS011;62304;47.662;18.324;2024-03-08T02:58:15;18.20;;;8.30;;
73951;SDS011;62304;47.662;18.324;2024-03-08T03:01:18;16.67;;;8.60;;
73951;SDS011;62304;47.662;18.324;2024-03-08T03:04:22;20.00;;;8.13;;
73951;SDS011;62304;47.662;18.324;2024-03-08T03:07:26;16.23;;;8.02;;
73951;SDS011;62304;47.662;18.324;2024-03-08T03:10:30;18.97;;;8.17;;
73951;SDS011;62304;47.662;18.324;2024-03-08T03:13:34;17.48;;;8.10;;
73951;SDS011;62304;47.662;18.324;2024-03-08T03:16:36;16.40;;;8.13;;
73951;SDS011;62304;47.662;18.324;2024-03-08T03:19:43;17.62;;;8.55;;
73951;SDS011;62304;47.662;18.324;2024-03-08T03:22:46;16.25;;;8.00;;
73951;SDS011;62304;47.662;18.324;2024-03-08T03:25:51;17.10;;;8.50;;
73951;SDS011;62304;47.662;18.324;2024-03-08T03:28:54;17.17;;;8.10;;
73951;SDS011;62304;47.662;18.324;2024-03-08T03:31:58;16.65;;;7.70;;
73951;SDS011;62304;47.662;18.324;2024-03-08T03:35:01;16.23;;;8.32;;
73951;SDS011;62304;47.662;18.324;2024-03-08T03:38:07;14.63;;;7.50;;
73951;SDS011;62304;47.662;18.324;2024-03-08T03:41:14;19.57;;;8.27;;
73951;SDS011;62304;47.662;18.324;2024-03-08T03:44:19;17.90;;;8.10;;
73951;SDS011;62304;47.662;18.324;2024-03-08T03:47:22;18.60;;;8.48;;
73951;SDS011;62304;47.662;18.324;2024-03-08T03:50:26;20.92;;;8.48;;
73951;SDS011;62304;47.662;18.324;2024-03-08T03:53:30;20.00;;;9.67;;
73951;SDS011;62304;47.662;18.324;2024-03-08T03:56:37;18.10;;;8.73;;
73951;SDS011;62304;47.662;18.324;2024-03-08T03:59:40;19.25;;;10.02;;
73951;SDS011;62304;47.662;18.324;2024-03-08T04:02:46;18.40;;;8.68;;
73951;SDS011;62304;47.662;18.324;2024-03-08T04:05:49;22.80;;;10.07;;
73951;SDS011;62304;47.662;18.324;2024-03-08T04:08:53;21.07;;;10.00;;
73951;SDS011;62304;47.662;18.324;2024-03-08T04:11:57;18.85;;;9.38;;
73951;SDS011;62304;47.662;18.324;2024-03-08T04:15:00;18.35;;;9.00;;
73951;SDS011;62304;47.662;18.324;2024-03-08T04:18:05;19.33;;;9.30;;
73951;SDS011;62304;47.662;18.324;2024-03-08T04:21:08;22.42;;;9.35;;
73951;SDS011;62304;47.662;18.324;2024-03-08T04:24:11;19.70;;;9.27;;
73951;SDS011;62304;47.662;18.324;2024-03-08T04:27:15;21.42;;;10.30;;
73951;SDS011;62304;47.662;18.324;2024-03-08T04:30:19;21.45;;;9.95;;
73951;SDS011;62304;47.662;18.324;2024-03-08T04:33:24;21.05;;;10.25;;
73951;SDS011;62304;47.662;18.324;2024-03-08T04:36:27;19.75;;;9.82;;
73951;SDS011;62304;47.662;18.324;2024-03-08T04:39:31;23.73;;;10.33;;
73951;SDS011;62304;47.662;18.324;2024-03-08T04:42:34;20.83;;;10.40;;
73951;SDS011;62304;47.662;18.324;2024-03-08T04:45:40;19.90;;;9.75;;
73951;SDS011;62304;47.662;18.324;2024-03-08T04:48:46;18.17;;;9.43;;
73951;SDS011;62304;47.662;18.324;2024-03-08T04:51:49;19.75;;;9.38;;
73951;SDS011;62304;47.662;18.324;2024-03-08T04:54:53;18.90;;;8.97;;
73951;SDS011;62304;47.662;18.324;2024-03-08T04:57:56;19.83;;;10.02;;
73951;SDS011;62304;47.662;18.324;2024-03-08T05:01:00;19.23;;;9.07;;
73951;SDS011;62304;47.662;18.324;2024-03-08T05:04:04;19.87;;;9.75;;
73951;SDS011;62304;47.662;18.324;2024-03-08T05:07:12;23.67;;;9.95;;
73951;SDS011;62304;47.662;18.324;2024-03-08T05:10:16;21.80;;;9.43;;
73951;SDS011;62304;47.662;18.324;2024-03-08T05:13:20;21.73;;;10.32;;
73951;SDS011;62304;47.662;18.324;2024-03-08T05:16:25;21.52;;;9.90;;
73951;SDS011;62304;47.662;18.324;2024-03-08T05:19:28;21.17;;;9.27;;
73951;SDS011;62304;47.662;18.324;2024-03-08T05:22:37;20.60;;;9.57;;
73951;SDS011;62304;47.662;18.324;2024-03-08T05:25:41;22.50;;;9.35;;
73951;SDS011;62304;47.662;18.324;2024-03-08T05:28:44;21.15;;;10.32;;
73951;SDS011;62304;47.662;18.324;2024-03-08T05:31:51;22.15;;;11.18;;
73951;SDS011;62304;47.662;18.324;2024-03-08T05:34:55;24.25;;;10.60;;
73951;SDS011;62304;47.662;18.324;2024-03-08T05:37:58;26.40;;;9.97;;
73951;SDS011;62304;47.662;18.324;2024-03-08T05:41:04;22.37;;;10.98;;
73951;SDS011;62304;47.662;18.324;2024-03-08T05:44:10;24.45;;;11.98;;
73951;SDS011;62304;47.662;18.324;2024-03-08T05:47:13;24.63;;;11.93;;
73951;SDS011;62304;47.662;18.324;2024-03-08T05:50:17;22.00;;;10.80;;
73951;SDS011;62304;47.662;18.324;2024-03-08T05:53:21;26.93;;;12.37;;
73951;SDS011;62304;47.662;18.324;2024-03-08T05:56:25;29.27;;;12.25;;
73951;SDS011;62304;47.662;18.324;2024-03-08T05:59:28;62.97;;;24.50;;
73951;SDS011;62304;47.662;18.324;2024-03-08T06:02:34;32.83;;;14.68;;
73951;SDS011;62304;47.662;18.324;2024-03-08T06:05:39;26.75;;;12.25;;
73951;SDS011;62304;47.662;18.324;2024-03-08T06:08:44;42.70;;;17.07;;
73951;SDS011;62304;47.662;18.324;2024-03-08T06:11:47;27.40;;;12.43;;
73951;SDS011;62304;47.662;18.324;2024-03-08T06:14:50;28.17;;;13.77;;
73951;SDS011;62304;47.662;18.324;2024-03-08T06:17:54;24.30;;;11.50;;
73951;SDS011;62304;47.662;18.324;2024-03-08T06:20:59;22.70;;;10.07;;
73951;SDS011;62304;47.662;18.324;2024-03-08T06:24:03;23.87;;;9.80;;
73951;SDS011;62304;47.662;18.324;2024-03-08T06:27:06;22.17;;;11.10;;
73951;SDS011;62304;47.662;18.324;2024-03-08T06:30:13;26.10;;;11.00;;
73951;SDS011;62304;47.662;18.324;2024-03-08T06:33:18;27.70;;;10.80;;
73951;SDS011;62304;47.662;18.324;2024-03-08T06:36:23;29.70;;;12.57;;
73951;SDS011;62304;47.662;18.324;2024-03-08T06:39:27;26.50;;;12.70;;
73951;SDS011;62304;47.662;18.324;2024-03-08T06:42:34;29.25;;;13.02;;
73951;SDS011;62304;47.662;18.324;2024-03-08T06:45:38;31.80;;;13.62;;
73951;SDS011;62304;47.662;18.324;2024-03-08T06:48:42;26.77;;;12.60;;
73951;SDS011;62304;47.662;18.324;2024-03-08T06:51:45;26.10;;;12.52;;
73951;SDS011;62304;47.662;18.324;2024-03-08T06:54:49;27.53;;;12.17;;
73951;SDS011;62304;47.662;18.324;2024-03-08T06:57:52;30.42;;;13.62;;
73951;SDS011;62304;47.662;18.324;2024-03-08T07:00:56;39.72;;;18.27;;
73951;SDS011;62304;47.662;18.324;2024-03-08T07:04:05;33.92;;;15.82;;
73951;SDS011;62304;47.662;18.324;2024-03-08T07:07:09;79.75;;;28.60;;
73951;SDS011;62304;47.662;18.324;2024-03-08T07:10:13;35.03;;;15.40;;
73951;SDS011;62304;47.662;18.324;2024-03-08T07:13:18;94.15;;;34.45;;
73951;SDS011;62304;47.662;18.324;2024-03-08T07:16:20;60.80;;;23.30;;
73951;SDS011;62304;47.662;18.324;2024-03-08T07:19:24;84.72;;;31.15;;
73951;SDS011;62304;47.662;18.324;2024-03-08T07:22:26;88.80;;;33.15;;
73951;SDS011;62304;47.662;18.324;2024-03-08T07:25:29;34.97;;;14.87;;
73951;SDS011;62304;47.662;18.324;2024-03-08T07:28:33;40.30;;;16.42;;
73951;SDS011;62304;47.662;18.324;2024-03-08T07:31:36;117.32;;;42.88;;
73951;SDS011;62304;47.662;18.324;2024-03-08T07:34:58;37.80;;;16.33;;
73951;SDS011;62304;47.662;18.324;2024-03-08T07:38:01;39.67;;;18.35;;
73951;SDS011;62304;47.662;18.324;2024-03-08T07:41:05;80.30;;;51.47;;
73951;SDS011;62304;47.662;18.324;2024-03-08T07:44:08;40.20;;;19.23;;
73951;SDS011;62304;47.662;18.324;2024-03-08T07:47:11;39.05;;;19.23;;
73951;SDS011;62304;47.662;18.324;2024-03-08T07:50:15;34.95;;;16.90;;
73951;SDS011;62304;47.662;18.324;2024-03-08T07:53:19;34.13;;;14.80;;
73951;SDS011;62304;47.662;18.324;2024-03-08T07:56:22;38.83;;;15.80;;
73951;SDS011;62304;47.662;18.324;2024-03-08T07:59:25;33.88;;;15.38;;
73951;SDS011;62304;47.662;18.324;2024-03-08T08:02:28;35.70;;;15.02;;
73951;SDS011;62304;47.662;18.324;2024-03-08T08:05:31;39.72;;;15.02;;
73951;SDS011;62304;47.662;18.324;2024-03-08T08:08:38;35.53;;;14.95;;
73951;SDS011;62304;47.662;18.324;2024-03-08T08:11:41;35.70;;;14.90;;
73951;SDS011;62304;47.662;18.324;2024-03-08T08:14:47;33.10;;;14.50;;
73951;SDS011;62304;47.662;18.324;2024-03-08T08:17:51;40.97;;;15.15;;
73951;SDS011;62304;47.662;18.324;2024-03-08T08:20:57;42.33;;;16.62;;
73951;SDS011;62304;47.662;18.324;2024-03-08T08:24:01;37.38;;;15.88;;
73951;SDS011;62304;47.662;18.324;2024-03-08T08:27:05;38.90;;;14.27;;
73951;SDS011;62304;47.662;18.324;2024-03-08T08:30:09;40.17;;;17.05;;
73951;SDS011;62304;47.662;18.324;2024-03-08T08:33:14;44.42;;;16.25;;
73951;SDS011;62304;47.662;18.324;2024-03-08T08:36:17;38.15;;;15.98;;
73951;SDS011;62304;47.662;18.324;2024-03-08T08:39:21;45.85;;;18.23;;
73951;SDS011;62304;47.662;18.324;2024-03-08T08:42:25;55.30;;;18.80;;
73951;SDS011;62304;47.662;18.324;2024-03-08T08:45:29;57.72;;;17.80;;
73951;SDS011;62304;47.662;18.324;2024-03-08T08:48:39;29.02;;;11.93;;
73951;SDS011;62304;47.662;18.324;2024-03-08T08:51:50;53.63;;;17.50;;
73951;SDS011;62304;47.662;18.324;2024-03-08T08:54:56;43.65;;;17.30;;
73951;SDS011;62304;47.662;18.324;2024-03-08T08:57:59;38.50;;;15.63;;
73951;SDS011;62304;47.662;18.324;2024-03-08T09:01:02;43.83;;;15.75;;
73951;SDS011;62304;47.662;18.324;2024-03-08T09:04:11;40.42;;;15.10;;
73951;SDS011;62304;47.662;18.324;2024-03-08T09:07:17;48.00;;;16.73;;
73951;SDS011;62304;47.662;18.324;2024-03-08T09:10:22;51.88;;;16.83;;
73951;SDS011;62304;47.662;18.324;2024-03-08T09:13:32;37.73;;;14.50;;
73951;SDS011;62304;47.662;18.324;2024-03-08T09:16:36;42.08;;;15.73;;
73951;SDS011;62304;47.662;18.324;2024-03-08T09:19:40;44.85;;;16.08;;
73951;SDS011;62304;47.662;18.324;2024-03-08T09:22:45;44.50;;;15.30;;
73951;SDS011;62304;47.662;18.324;2024-03-08T09:25:49;32.35;;;11.07;;
73951;SDS011;62304;47.662;18.324;2024-03-08T09:28:52;37.17;;;12.77;;
73951;SDS011;62304;47.662;18.324;2024-03-08T09:31:57;40.30;;;14.48;;
73951;SDS011;62304;47.662;18.324;2024-03-08T09:35:01;37.67;;;16.90;;
73951;SDS011;62304;47.662;18.324;2024-03-08T09:38:05;40.10;;;16.70;;
73951;SDS011;62304;47.662;18.324;2024-03-08T09:41:13;41.00;;;16.25;;
73951;SDS011;62304;47.662;18.324;2024-03-08T09:44:16;50.80;;;17.00;;
73951;SDS011;62304;47.662;18.324;2024-03-08T09:47:19;42.62;;;16.55;;
73951;SDS011;62304;47.662;18.324;2024-03-08T09:50:27;46.37;;;19.87;;
73951;SDS011;62304;47.662;18.324;2024-03-08T09:53:32;46.55;;;15.93;;
73951;SDS011;62304;47.662;18.324;2024-03-08T09:56:35;42.95;;;16.23;;
73951;SDS011;62304;47.662;18.324;2024-03-08T09:59:39;46.43;;;16.83;;
73951;SDS011;62304;47.662;18.324;2024-03-08T10:02:42;41.35;;;17.30;;
73951;SDS011;62304;47.662;18.324;2024-03-08T10:05:48;46.25;;;18.95;;
73951;SDS011;62304;47.662;18.324;2024-03-08T10:08:51;90.95;;;43.58;;
73951;SDS011;62304;47.662;18.324;2024-03-08T10:11:58;78.95;;;37.03;;
73951;SDS011;62304;47.662;18.324;2024-03-08T10:15:01;75.77;;;25.97;;
73951;SDS011;62304;47.662;18.324;2024-03-08T10:18:05;47.92;;;17.85;;
73951;SDS011;62304;47.662;18.324;2024-03-08T10:21:11;43.03;;;16.70;;
73951;SDS011;62304;47.662;18.324;2024-03-08T10:24:14;35.58;;;14.65;;
73951;SDS011;62304;47.662;18.324;2024-03-08T10:27:18;37.65;;;15.93;;
73951;SDS011;62304;47.662;18.324;2024-03-08T10:30:21;36.07;;;14.87;;
73951;SDS011;62304;47.662;18.324;2024-03-08T10:33:24;35.90;;;14.75;;
73951;SDS011;62304;47.662;18.324;2024-03-08T10:36:28;36.95;;;14.50;;
73951;SDS011;62304;47.662;18.324;2024-03-08T10:39:35;36.30;;;14.18;;
73951;SDS011;62304;47.662;18.324;2024-03-08T10:42:40;62.58;;;25.15;;
73951;SDS011;62304;47.662;18.324;2024-03-08T10:45:53;31.87;;;12.67;;
73951;SDS011;62304;47.662;18.324;2024-03-08T10:49:12;35.22;;;13.88;;
73951;SDS011;62304;47.662;18.324;2024-03-08T10:52:20;30.20;;;12.13;;
73951;SDS011;62304;47.662;18.324;2024-03-08T10:55:25;25.70;;;10.25;;
73951;SDS011;62304;47.662;18.324;2024-03-08T10:58:30;31.77;;;11.80;;
73951;SDS011;62304;47.662;18.324;2024-03-08T11:01:35;28.93;;;12.63;;
73951;SDS011;62304;47.662;18.324;2024-03-08T11:04:45;30.42;;;11.98;;
73951;SDS011;62304;47.662;18.324;2024-03-08T11:07:50;32.05;;;14.13;;
73951;SDS011;62304;47.662;18.324;2024-03-08T11:10:54;32.17;;;13.77;;
73951;SDS011;62304;47.662;18.324;2024-03-08T11:14:01;28.42;;;12.60;;
73951;SDS011;62304;47.662;18.324;2024-03-08T11:17:05;32.43;;;14.30;;
73951;SDS011;62304;47.662;18.324;2024-03-08T11:20:10;31.30;;;13.65;;
73951;SDS011;62304;47.662;18.324;2024-03-08T11:23:18;33.42;;;14.25;;
73951;SDS011;62304;47.662;18.324;2024-03-08T11:26:26;31.37;;;13.45;;
73951;SDS011;62304;47.662;18.324;2024-03-08T11:32:39;29.70;;;12.33;;
73951;SDS011;62304;47.662;18.324;2024-03-08T11:35:49;27.55;;;12.98;;
73951;SDS011;62304;47.662;18.324;2024-03-08T11:38:53;29.30;;;13.43;;
73951;SDS011;62304;47.662;18.324;2024-03-08T11:41:58;27.80;;;11.82;;
73951;SDS011;62304;47.662;18.324;2024-03-08T11:45:07;30.48;;;13.20;;
73951;SDS011;62304;47.662;18.324;2024-03-08T11:48:11;31.30;;;12.90;;
73951;SDS011;62304;47.662;18.324;2024-03-08T11:51:16;29.63;;;12.68;;
73951;SDS011;62304;47.662;18.324;2024-03-08T11:54:21;28.50;;;12.75;;
73951;SDS011;62304;47.662;18.324;2024-03-08T11:57:25;27.05;;;12.18;;
73951;SDS011;62304;47.662;18.324;2024-03-08T12:00:29;41.25;;;12.27;;
73951;SDS011;62304;47.662;18.324;2024-03-08T12:03:41;33.63;;;14.23;;
73951;SDS011;62304;47.662;18.324;2024-03-08T12:06:47;31.95;;;13.52;;
73951;SDS011;62304;47.662;18.324;2024-03-08T12:13:21;42.80;;;16.70;;
73951;SDS011;62304;47.662;18.324;2024-03-08T12:16:24;42.55;;;13.75;;
73951;SDS011;62304;47.662;18.324;2024-03-08T12:19:28;38.03;;;16.23;;
73951;SDS011;62304;47.662;18.324;2024-03-08T12:22:31;28.55;;;11.63;;
73951;SDS011;62304;47.662;18.324;2024-03-08T12:25:35;29.02;;;12.73;;
73951;SDS011;62304;47.662;18.324;2024-03-08T12:28:40;52.03;;;15.65;;
73951;SDS011;62304;47.662;18.324;2024-03-08T12:31:47;35.17;;;15.15;;
73951;SDS011;62304;47.662;18.324;2024-03-08T12:34:56;30.50;;;11.30;;
73951;SDS011;62304;47.662;18.324;2024-03-08T12:37:59;31.52;;;11.05;;
73951;SDS011;62304;47.662;18.324;2024-03-08T12:41:03;29.75;;;11.57;;
73951;SDS011;62304;47.662;18.324;2024-03-08T12:44:07;25.70;;;9.73;;
73951;SDS011;62304;47.662;18.324;2024-03-08T12:47:14;25.40;;;9.73;;
73951;SDS011;62304;47.662;18.324;2024-03-08T12:50:17;24.53;;;10.20;;
73951;SDS011;62304;47.662;18.324;2024-03-08T12:53:21;38.03;;;13.40;;
73951;SDS011;62304;47.662;18.324;2024-03-08T12:56:29;41.80;;;13.20;;
73951;SDS011;62304;47.662;18.324;2024-03-08T12:59:35;30.00;;;11.27;;
73951;SDS011;62304;47.662;18.324;2024-03-08T13:02:39;31.17;;;12.98;;
73951;SDS011;62304;47.662;18.324;2024-03-08T13:05:43;37.93;;;15.43;;
73951;SDS011;62304;47.662;18.324;2024-03-08T13:08:47;39.95;;;14.87;;
73951;SDS011;62304;47.662;18.324;2024-03-08T13:11:51;32.55;;;13.50;;
73951;SDS011;62304;47.662;18.324;2024-03-08T13:14:56;42.65;;;15.10;;
73951;SDS011;62304;47.662;18.324;2024-03-08T13:17:59;31.08;;;13.38;;
73951;SDS011;62304;47.662;18.324;2024-03-08T13:21:03;31.87;;;12.57;;
73951;SDS011;62304;47.662;18.324;2024-03-08T13:24:11;40.15;;;17.48;;
73951;SDS011;62304;47.662;18.324;2024-03-08T13:27:14;32.90;;;15.57;;
73951;SDS011;62304;47.662;18.324;2024-03-08T13:30:25;68.70;;;25.77;;
73951;SDS011;62304;47.662;18.324;2024-03-08T13:33:29;114.35;;;38.65;;
73951;SDS011;62304;47.662;18.324;2024-03-08T13:36:32;34.17;;;15.17;;
73951;SDS011;62304;47.662;18.324;2024-03-08T13:39:42;39.80;;;15.88;;
73951;SDS011;62304;47.662;18.324;2024-03-08T13:42:48;32.63;;;14.80;;
73951;SDS011;62304;47.662;18.324;2024-03-08T13:45:52;34.35;;;15.38;;
73951;SDS011;62304;47.662;18.324;2024-03-08T13:48:56;40.22;;;15.27;;
73951;SDS011;62304;47.662;18.324;2024-03-08T13:52:11;31.33;;;12.50;;
73951;SDS011;62304;47.662;18.324;2024-03-08T13:55:18;35.88;;;14.35;;
73951;SDS011;62304;47.662;18.324;2024-03-08T13:58:21;44.00;;;15.23;;
73951;SDS011;62304;47.662;18.324;2024-03-08T14:01:25;29.67;;;13.32;;
73951;SDS011;62304;47.662;18.324;2024-03-08T14:04:31;32.40;;;14.55;;
73951;SDS011;62304;47.662;18.324;2024-03-08T14:07:35;35.97;;;14.37;;
73951;SDS011;62304;47.662;18.324;2024-03-08T14:10:39;28.90;;;13.95;;
73951;SDS011;62304;47.662;18.324;2024-03-08T14:13:45;33.10;;;15.40;;
73951;SDS011;62304;47.662;18.324;2024-03-08T14:16:49;49.92;;;19.27;;
73951;SDS011;62304;47.662;18.324;2024-03-08T14:19:55;35.33;;;16.27;;
73951;SDS011;62304;47.662;18.324;2024-03-08T14:22:59;35.00;;;15.40;;
73951;SDS011;62304;47.662;18.324;2024-03-08T14:26:05;26.55;;;11.93;;
73951;SDS011;62304;47.662;18.324;2024-03-08T14:29:11;33.30;;;15.80;;
73951;SDS011;62304;47.662;18.324;2024-03-08T14:32:16;43.08;;;17.23;;
73951;SDS011;62304;47.662;18.324;2024-03-08T14:35:23;32.47;;;14.48;;
73951;SDS011;62304;47.662;18.324;2024-03-08T14:38:27;57.63;;;21.07;;
73951;SDS011;62304;47.662;18.324;2024-03-08T14:41:31;40.55;;;19.10;;
73951;SDS011;62304;47.662;18.324;2024-03-08T14:44:37;54.95;;;23.23;;
73951;SDS011;62304;47.662;18.324;2024-03-08T14:47:41;51.25;;;23.75;;
73951;SDS011;62304;47.662;18.324;2024-03-08T14:50:45;43.10;;;20.85;;
73951;SDS011;62304;47.662;18.324;2024-03-08T14:53:50;36.83;;;17.00;;
73951;SDS011;62304;47.662;18.324;2024-03-08T14:56:53;38.88;;;17.77;;
73951;SDS011;62304;47.662;18.324;2024-03-08T14:59:58;46.83;;;21.95;;
73951;SDS011;62304;47.662;18.324;2024-03-08T15:03:08;51.33;;;22.05;;
73951;SDS011;62304;47.662;18.324;2024-03-08T15:06:16;51.85;;;22.73;;
73951;SDS011;62304;47.662;18.324;2024-03-08T15:09:23;52.77;;;24.40;;
73951;SDS011;62304;47.662;18.324;2024-03-08T15:12:27;40.40;;;17.40;;
73951;SDS011;62304;47.662;18.324;2024-03-08T15:15:31;45.58;;;17.67;;
73951;SDS011;62304;47.662;18.324;2024-03-08T15:18:39;76.53;;;27.70;;
73951;SDS011;62304;47.662;18.324;2024-03-08T15:21:42;88.55;;;32.45;;
73951;SDS011;62304;47.662;18.324;2024-03-08T15:24:48;79.40;;;32.13;;
73951;SDS011;62304;47.662;18.324;2024-03-08T15:27:52;88.35;;;34.35;;
73951;SDS011;62304;47.662;18.324;2024-03-08T15:30:56;253.93;;;96.10;;
73951;SDS011;62304;47.662;18.324;2024-03-08T15:34:07;57.05;;;25.05;;
73951;SDS011;62304;47.662;18.324;2024-03-08T15:37:11;48.45;;;21.33;;
73951;SDS011;62304;47.662;18.324;2024-03-08T15:40:19;46.83;;;18.03;;
73951;SDS011;62304;47.662;18.324;2024-03-08T15:43:26;40.20;;;18.42;;
73951;SDS011;62304;47.662;18.324;2024-03-08T15:46:30;43.70;;;19.67;;
73951;SDS011;62304;47.662;18.324;2024-03-08T15:49:33;36.20;;;16.70;;
73951;SDS011;62304;47.662;18.324;2024-03-08T15:52:36;36.25;;;18.80;;
73951;SDS011;62304;47.662;18.324;2024-03-08T15:55:43;38.80;;;18.40;;
73951;SDS011;62304;47.662;18.324;2024-03-08T15:58:49;37.65;;;18.05;;
73951;SDS011;62304;47.662;18.324;2024-03-08T16:01:55;41.72;;;20.00;;
73951;SDS011;62304;47.662;18.324;2024-03-08T16:05:01;40.78;;;19.25;;
73951;SDS011;62304;47.662;18.324;2024-03-08T16:08:05;56.90;;;26.62;;
73951;SDS011;62304;47.662;18.324;2024-03-08T16:11:11;45.63;;;21.10;;
73951;SDS011;62304;47.662;18.324;2024-03-08T16:14:14;46.67;;;21.40;;
73951;SDS011;62304;47.662;18.324;2024-03-08T16:17:19;48.78;;;24.50;;
73951;SDS011;62304;47.662;18.324;2024-03-08T16:20:24;47.75;;;20.92;;
73951;SDS011;62304;47.662;18.324;2024-03-08T16:23:28;44.90;;;20.67;;
73951;SDS011;62304;47.662;18.324;2024-03-08T16:26:34;46.37;;;22.73;;
73951;SDS011;62304;47.662;18.324;2024-03-08T16:29:38;84.72;;;34.25;;
73951;SDS011;62304;47.662;18.324;2024-03-08T16:32:45;130.43;;;45.53;;
73951;SDS011;62304;47.662;18.324;2024-03-08T16:35:56;51.22;;;24.37;;
73951;SDS011;62304;47.662;18.324;2024-03-08T16:39:03;34.05;;;17.23;;
73951;SDS011;62304;47.662;18.324;2024-03-08T16:42:07;33.93;;;16.67;;
73951;SDS011;62304;47.662;18.324;2024-03-08T16:45:11;116.75;;;42.85;;
73951;SDS011;62304;47.662;18.324;2024-03-08T16:48:17;46.45;;;19.92;;
73951;SDS011;62304;47.662;18.324;2024-03-08T16:51:23;107.03;;;45.58;;
73951;SDS011;62304;47.662;18.324;2024-03-08T16:54:28;35.70;;;17.45;;
73951;SDS011;62304;47.662;18.324;2024-03-08T16:57:44;34.87;;;19.30;;
73951;SDS011;62304;47.662;18.324;2024-03-08T17:00:49;37.38;;;19.30;;
73951;SDS011;62304;47.662;18.324;2024-03-08T17:03:52;34.72;;;16.48;;
73951;SDS011;62304;47.662;18.324;2024-03-08T17:07:03;36.75;;;17.70;;
73951;SDS011;62304;47.662;18.324;2024-03-08T17:10:08;36.88;;;18.17;;
73951;SDS011;62304;47.662;18.324;2024-03-08T17:13:17;40.20;;;17.87;;
73951;SDS011;62304;47.662;18.324;2024-03-08T17:16:21;37.08;;;17.25;;
73951;SDS011;62304;47.662;18.324;2024-03-08T17:19:28;39.45;;;19.10;;
73951;SDS011;62304;47.662;18.324;2024-03-08T17:22:32;35.03;;;17.17;;
73951;SDS011;62304;47.662;18.324;2024-03-08T17:25:36;35.78;;;16.55;;
73951;SDS011;62304;47.662;18.324;2024-03-08T17:28:40;31.53;;;14.73;;
73951;SDS011;62304;47.662;18.324;2024-03-08T17:31:46;35.85;;;17.52;;
73951;SDS011;62304;47.662;18.324;2024-03-08T17:34:49;34.03;;;17.85;;
73951;SDS011;62304;47.662;18.324;2024-03-08T17:37:54;37.70;;;17.62;;
73951;SDS011;62304;47.662;18.324;2024-03-08T17:40:58;32.67;;;16.33;;
73951;SDS011;62304;47.662;18.324;2024-03-08T17:44:03;31.03;;;15.70;;
73951;SDS011;62304;47.662;18.324;2024-03-08T17:47:06;34.28;;;17.73;;
73951;SDS011;62304;47.662;18.324;2024-03-08T17:50:10;32.78;;;16.05;;
73951;SDS011;62304;47.662;18.324;2024-03-08T17:53:16;35.15;;;16.77;;
73951;SDS011;62304;47.662;18.324;2024-03-08T17:56:23;25.80;;;12.73;;